SQP102 UKOO-UKBB
Flight info
| Callsign | SQP102 |
|---|---|
| Flight time | 0h 55m |
| Altitude | 37000 |
| Route | VAKOM L83 VAPEL T219 KONIP |
| Aircraft | B738/M-SDE2E3FGHIRWXY/LB1 |
Departure
| Time | 2026-04-25 10:22 |
|---|---|
| Airport | Odesa International Airport (UKOO) |
Arrival
| Time | 2026-04-25 11:18 |
|---|---|
| Airport | Boryspil International Airport (UKBB) |
| Time | Latitude | Longitude | Altitude | Speed | Heading |
|---|---|---|---|---|---|
| 2026-04-25 09:56 | 46.44219 | 30.67374 | 172 ft | 0 kts | 79° |
| 2026-04-25 10:13 | 46.44219 | 30.67372 | 169 ft | 2 kts | 79° |
| 2026-04-25 10:13 | 46.44216 | 30.67336 | 171 ft | 4 kts | 90° |
| 2026-04-25 10:13 | 46.44219 | 30.67298 | 172 ft | 4 kts | 111° |
| 2026-04-25 10:14 | 46.44233 | 30.67270 | 172 ft | 4 kts | 158° |
| 2026-04-25 10:14 | 46.44243 | 30.67266 | 172 ft | 1 kts | 170° |
| 2026-04-25 10:18 | 46.44227 | 30.67270 | 172 ft | 5 kts | 170° |
| 2026-04-25 10:19 | 46.44172 | 30.67284 | 172 ft | 11 kts | 169° |
| 2026-04-25 10:19 | 46.44105 | 30.67302 | 172 ft | 11 kts | 169° |
| 2026-04-25 10:19 | 46.44021 | 30.67317 | 172 ft | 13 kts | 194° |
| 2026-04-25 10:19 | 46.43979 | 30.67202 | 172 ft | 14 kts | 253° |
| 2026-04-25 10:20 | 46.43949 | 30.67056 | 172 ft | 16 kts | 253° |
| 2026-04-25 10:20 | 46.43921 | 30.66919 | 172 ft | 8 kts | 253° |
| 2026-04-25 10:20 | 46.43909 | 30.66861 | 172 ft | 5 kts | 253° |
| 2026-04-25 10:20 | 46.43899 | 30.66813 | 172 ft | 5 kts | 254° |
| 2026-04-25 10:21 | 46.43872 | 30.66797 | 171 ft | 5 kts | 168° |
| 2026-04-25 10:21 | 46.43830 | 30.66816 | 170 ft | 12 kts | 163° |
| 2026-04-25 10:21 | 46.43514 | 30.66953 | 174 ft | 85 kts | 163° |
| 2026-04-25 10:21 | 46.42722 | 30.67296 | 171 ft | 150 kts | 163° |
| 2026-04-25 10:22 | 46.41634 | 30.67770 | 672 ft | 169 kts | 166° |
| 2026-04-25 10:22 | 46.40474 | 30.68267 | 1449 ft | 178 kts | 166° |
| 2026-04-25 10:22 | 46.39204 | 30.68808 | 1945 ft | 206 kts | 167° |
| 2026-04-25 10:22 | 46.37732 | 30.69433 | 2257 ft | 235 kts | 166° |
| 2026-04-25 10:23 | 46.36133 | 30.70120 | 2949 ft | 243 kts | 166° |
| 2026-04-25 10:23 | 46.34480 | 30.70828 | 3685 ft | 255 kts | 166° |
| 2026-04-25 10:23 | 46.32730 | 30.71591 | 4307 ft | 271 kts | 166° |
| 2026-04-25 10:23 | 46.30862 | 30.72134 | 4508 ft | 273 kts | 185° |
| 2026-04-25 10:24 | 46.29078 | 30.71428 | 4787 ft | 264 kts | 214° |
| 2026-04-25 10:24 | 46.27770 | 30.69660 | 5064 ft | 257 kts | 239° |
| 2026-04-25 10:24 | 46.27027 | 30.67336 | 5333 ft | 255 kts | 255° |
| 2026-04-25 10:24 | 46.26520 | 30.64872 | 5594 ft | 256 kts | 256° |
| 2026-04-25 10:25 | 46.26052 | 30.62383 | 5880 ft | 257 kts | 264° |
| 2026-04-25 10:25 | 46.26198 | 30.59847 | 6117 ft | 254 kts | 291° |
| 2026-04-25 10:25 | 46.27120 | 30.57713 | 6709 ft | 252 kts | 313° |
| 2026-04-25 10:25 | 46.28551 | 30.56234 | 7635 ft | 257 kts | 333° |
| 2026-04-25 10:26 | 46.30218 | 30.55351 | 8569 ft | 261 kts | 339° |
| 2026-04-25 10:26 | 46.31980 | 30.54601 | 9459 ft | 266 kts | 340° |
| 2026-04-25 10:26 | 46.33776 | 30.53866 | 10297 ft | 271 kts | 340° |
| 2026-04-25 10:26 | 46.35666 | 30.53081 | 10604 ft | 296 kts | 340° |
| 2026-04-25 10:27 | 46.37727 | 30.52209 | 10821 ft | 320 kts | 340° |
| 2026-04-25 10:27 | 46.39908 | 30.51278 | 11377 ft | 331 kts | 340° |
| 2026-04-25 10:27 | 46.42132 | 30.50322 | 12189 ft | 334 kts | 340° |
| 2026-04-25 10:27 | 46.44368 | 30.49355 | 13045 ft | 336 kts | 340° |
| 2026-04-25 10:28 | 46.46622 | 30.48373 | 13848 ft | 340 kts | 340° |
| 2026-04-25 10:28 | 46.48896 | 30.47379 | 14562 ft | 343 kts | 340° |
| 2026-04-25 10:28 | 46.51164 | 30.46387 | 15295 ft | 345 kts | 340° |
| 2026-04-25 10:28 | 46.53477 | 30.45374 | 16005 ft | 349 kts | 340° |
| 2026-04-25 10:29 | 46.55818 | 30.44373 | 16700 ft | 353 kts | 343° |
| 2026-04-25 10:29 | 46.58297 | 30.44077 | 17383 ft | 364 kts | 1° |
| 2026-04-25 10:29 | 46.60809 | 30.44774 | 18136 ft | 370 kts | 9° |
| 2026-04-25 10:29 | 46.63320 | 30.45713 | 18756 ft | 374 kts | 10° |
| 2026-04-25 10:30 | 46.65843 | 30.46704 | 19373 ft | 377 kts | 11° |
| 2026-04-25 10:30 | 46.67526 | 30.47366 | 19818 ft | 378 kts | 10° |
| 2026-04-25 10:30 | 46.70934 | 30.48689 | 20710 ft | 379 kts | 10° |
| 2026-04-25 10:30 | 46.73490 | 30.49665 | 21312 ft | 381 kts | 10° |
| 2026-04-25 10:31 | 46.76032 | 30.50626 | 21928 ft | 383 kts | 10° |
| 2026-04-25 10:31 | 46.78649 | 30.51609 | 22567 ft | 384 kts | 10° |
| 2026-04-25 10:31 | 46.81244 | 30.52583 | 23160 ft | 386 kts | 10° |
| 2026-04-25 10:31 | 46.83853 | 30.53561 | 23698 ft | 388 kts | 10° |
| 2026-04-25 10:32 | 46.86441 | 30.54532 | 24159 ft | 390 kts | 10° |
| 2026-04-25 10:32 | 46.89106 | 30.55534 | 24677 ft | 391 kts | 10° |
| 2026-04-25 10:32 | 46.91705 | 30.56513 | 25173 ft | 391 kts | 10° |
| 2026-04-25 10:32 | 46.94342 | 30.57506 | 25647 ft | 392 kts | 10° |
| 2026-04-25 10:33 | 46.96991 | 30.58505 | 26079 ft | 394 kts | 10° |
| 2026-04-25 10:33 | 46.99656 | 30.59510 | 26529 ft | 395 kts | 10° |
| 2026-04-25 10:33 | 47.02257 | 30.60488 | 26983 ft | 396 kts | 10° |
| 2026-04-25 10:33 | 47.04933 | 30.61488 | 27409 ft | 397 kts | 10° |
| 2026-04-25 10:34 | 47.07617 | 30.62490 | 27824 ft | 399 kts | 9° |
| 2026-04-25 10:34 | 47.10308 | 30.63496 | 28240 ft | 400 kts | 9° |
| 2026-04-25 10:34 | 47.13012 | 30.64508 | 28635 ft | 402 kts | 10° |
| 2026-04-25 10:34 | 47.15726 | 30.65525 | 28999 ft | 403 kts | 10° |
| 2026-04-25 10:35 | 47.18451 | 30.66548 | 29368 ft | 405 kts | 10° |
| 2026-04-25 10:35 | 47.21182 | 30.67575 | 29772 ft | 405 kts | 10° |
| 2026-04-25 10:35 | 47.23916 | 30.68606 | 30182 ft | 405 kts | 10° |
| 2026-04-25 10:35 | 47.26643 | 30.69635 | 30554 ft | 404 kts | 10° |
| 2026-04-25 10:36 | 47.29333 | 30.70650 | 30891 ft | 404 kts | 10° |
| 2026-04-25 10:36 | 47.32095 | 30.71693 | 31266 ft | 403 kts | 10° |
| 2026-04-25 10:36 | 47.34808 | 30.72720 | 31676 ft | 402 kts | 10° |
| 2026-04-25 10:36 | 47.37519 | 30.73745 | 32008 ft | 402 kts | 10° |
| 2026-04-25 10:37 | 47.40191 | 30.74757 | 32290 ft | 403 kts | 10° |
| 2026-04-25 10:37 | 47.42903 | 30.75785 | 32633 ft | 402 kts | 10° |
| 2026-04-25 10:37 | 47.45607 | 30.76780 | 33048 ft | 400 kts | 9° |
| 2026-04-25 10:37 | 47.48310 | 30.77729 | 33367 ft | 399 kts | 9° |
| 2026-04-25 10:38 | 47.51022 | 30.78665 | 33651 ft | 400 kts | 9° |
| 2026-04-25 10:38 | 47.53733 | 30.79600 | 33996 ft | 399 kts | 9° |
| 2026-04-25 10:38 | 47.56435 | 30.80537 | 34299 ft | 398 kts | 9° |
| 2026-04-25 10:38 | 47.59142 | 30.81479 | 34458 ft | 401 kts | 9° |
| 2026-04-25 10:39 | 47.61869 | 30.82432 | 34631 ft | 403 kts | 9° |
| 2026-04-25 10:39 | 47.64602 | 30.83390 | 34875 ft | 403 kts | 9° |
| 2026-04-25 10:39 | 47.67335 | 30.84351 | 35122 ft | 404 kts | 9° |
| 2026-04-25 10:39 | 47.70042 | 30.85305 | 35296 ft | 406 kts | 9° |
| 2026-04-25 10:40 | 47.72791 | 30.86274 | 35474 ft | 407 kts | 9° |
| 2026-04-25 10:40 | 47.75588 | 30.87262 | 35695 ft | 408 kts | 9° |
| 2026-04-25 10:40 | 47.78348 | 30.88238 | 35900 ft | 408 kts | 9° |
| 2026-04-25 10:40 | 47.80182 | 30.88886 | 36008 ft | 410 kts | 9° |
| 2026-04-25 10:41 | 47.83903 | 30.90204 | 36183 ft | 413 kts | 9° |
| 2026-04-25 10:41 | 47.86669 | 30.91184 | 36375 ft | 414 kts | 9° |
| 2026-04-25 10:41 | 47.89465 | 30.92177 | 36600 ft | 414 kts | 9° |
| 2026-04-25 10:41 | 47.92272 | 30.93175 | 36768 ft | 415 kts | 9° |
| 2026-04-25 10:42 | 47.95087 | 30.94177 | 36914 ft | 416 kts | 9° |
| 2026-04-25 10:42 | 48.00680 | 30.96170 | 36989 ft | 418 kts | 9° |
| 2026-04-25 10:43 | 48.06335 | 30.98041 | 36995 ft | 414 kts | 6° |
| 2026-04-25 10:43 | 48.12012 | 30.99364 | 36991 ft | 412 kts | 5° |
| 2026-04-25 10:44 | 48.17680 | 31.00605 | 36996 ft | 411 kts | 5° |
| 2026-04-25 10:44 | 48.23296 | 31.01870 | 36991 ft | 410 kts | 5° |
| 2026-04-25 10:45 | 48.28918 | 31.03166 | 36990 ft | 410 kts | 5° |
| 2026-04-25 10:45 | 48.34558 | 31.04477 | 36993 ft | 410 kts | 5° |
| 2026-04-25 10:46 | 48.40201 | 31.05793 | 36975 ft | 411 kts | 5° |
| 2026-04-25 10:46 | 48.45855 | 31.07114 | 36977 ft | 411 kts | 5° |
| 2026-04-25 10:47 | 48.50555 | 31.08215 | 36975 ft | 411 kts | 5° |
| 2026-04-25 10:47 | 48.56218 | 31.09543 | 36981 ft | 412 kts | 5° |
| 2026-04-25 10:48 | 48.61886 | 31.10876 | 36941 ft | 413 kts | 5° |
| 2026-04-25 10:48 | 48.64751 | 31.11549 | 36465 ft | 418 kts | 5° |
| 2026-04-25 10:48 | 48.67614 | 31.12225 | 35893 ft | 415 kts | 5° |
| 2026-04-25 10:48 | 48.70455 | 31.12897 | 35296 ft | 412 kts | 5° |
| 2026-04-25 10:49 | 48.73267 | 31.13564 | 35012 ft | 403 kts | 5° |
| 2026-04-25 10:49 | 48.76032 | 31.14220 | 34366 ft | 402 kts | 5° |
| 2026-04-25 10:49 | 48.78768 | 31.14869 | 33905 ft | 397 kts | 5° |
| 2026-04-25 10:49 | 48.81474 | 31.15511 | 33438 ft | 390 kts | 5° |
| 2026-04-25 10:50 | 48.84106 | 31.16136 | 32995 ft | 384 kts | 5° |
| 2026-04-25 10:50 | 48.86725 | 31.16759 | 32586 ft | 378 kts | 5° |
| 2026-04-25 10:50 | 48.89307 | 31.17373 | 32165 ft | 372 kts | 5° |
| 2026-04-25 10:50 | 48.91843 | 31.17977 | 31756 ft | 366 kts | 5° |
| 2026-04-25 10:51 | 48.94339 | 31.18571 | 31360 ft | 360 kts | 5° |
| 2026-04-25 10:51 | 48.96796 | 31.19156 | 30982 ft | 355 kts | 5° |
| 2026-04-25 10:51 | 48.99217 | 31.19734 | 30577 ft | 350 kts | 5° |
| 2026-04-25 10:51 | 49.01559 | 31.20294 | 30223 ft | 344 kts | 5° |
| 2026-04-25 10:52 | 49.03912 | 31.20862 | 29790 ft | 340 kts | 5° |
| 2026-04-25 10:52 | 49.06210 | 31.21552 | 29529 ft | 332 kts | 7° |
| 2026-04-25 10:52 | 49.08451 | 31.22319 | 29115 ft | 327 kts | 8° |
| 2026-04-25 10:52 | 49.10650 | 31.23095 | 28705 ft | 322 kts | 8° |
| 2026-04-25 10:53 | 49.12816 | 31.23859 | 28317 ft | 318 kts | 8° |
| 2026-04-25 10:53 | 49.14962 | 31.24609 | 27943 ft | 314 kts | 7° |
| 2026-04-25 10:53 | 49.17079 | 31.25345 | 27550 ft | 310 kts | 7° |
| 2026-04-25 10:53 | 49.19178 | 31.26069 | 27195 ft | 311 kts | 7° |
| 2026-04-25 10:54 | 49.21319 | 31.26804 | 26822 ft | 319 kts | 7° |
| 2026-04-25 10:54 | 49.22750 | 31.27296 | 26560 ft | 317 kts | 7° |
| 2026-04-25 10:54 | 49.25573 | 31.28272 | 26076 ft | 311 kts | 7° |
| 2026-04-25 10:54 | 49.27670 | 31.28998 | 25715 ft | 308 kts | 7° |
| 2026-04-25 10:55 | 49.29748 | 31.29716 | 25363 ft | 305 kts | 7° |
| 2026-04-25 10:55 | 49.31813 | 31.30429 | 25018 ft | 303 kts | 7° |
| 2026-04-25 10:55 | 49.33878 | 31.31141 | 24641 ft | 307 kts | 7° |
| 2026-04-25 10:55 | 49.35978 | 31.31859 | 24326 ft | 310 kts | 7° |
| 2026-04-25 10:56 | 49.38092 | 31.32546 | 24108 ft | 311 kts | 7° |
| 2026-04-25 10:56 | 49.40207 | 31.33222 | 23876 ft | 309 kts | 7° |
| 2026-04-25 10:56 | 49.42303 | 31.33891 | 23549 ft | 306 kts | 7° |
| 2026-04-25 10:56 | 49.44380 | 31.34556 | 23111 ft | 303 kts | 7° |
| 2026-04-25 10:57 | 49.46432 | 31.35214 | 22715 ft | 300 kts | 7° |
| 2026-04-25 10:57 | 49.48465 | 31.35868 | 22345 ft | 298 kts | 7° |
| 2026-04-25 10:57 | 49.50488 | 31.36519 | 21962 ft | 296 kts | 7° |
| 2026-04-25 10:57 | 49.52500 | 31.37167 | 21579 ft | 297 kts | 7° |
| 2026-04-25 10:58 | 49.54532 | 31.37820 | 21208 ft | 301 kts | 7° |
| 2026-04-25 10:58 | 49.56591 | 31.38484 | 20829 ft | 302 kts | 7° |
| 2026-04-25 10:58 | 49.58639 | 31.39147 | 20444 ft | 300 kts | 7° |
| 2026-04-25 10:58 | 49.60668 | 31.39806 | 20073 ft | 297 kts | 7° |
| 2026-04-25 10:59 | 49.62680 | 31.40459 | 19713 ft | 294 kts | 7° |
| 2026-04-25 10:59 | 49.64682 | 31.41108 | 19365 ft | 295 kts | 7° |
| 2026-04-25 10:59 | 49.66668 | 31.41751 | 19003 ft | 295 kts | 7° |
| 2026-04-25 10:59 | 49.68703 | 31.42412 | 18638 ft | 296 kts | 7° |
| 2026-04-25 11:00 | 49.70702 | 31.43061 | 18269 ft | 299 kts | 7° |
| 2026-04-25 11:00 | 49.72753 | 31.43604 | 17865 ft | 297 kts | 360° |
| 2026-04-25 11:00 | 49.74796 | 31.43585 | 17484 ft | 291 kts | 353° |
| 2026-04-25 11:00 | 49.76787 | 31.43158 | 17115 ft | 287 kts | 345° |
| 2026-04-25 11:01 | 49.78689 | 31.42311 | 16772 ft | 283 kts | 342° |
| 2026-04-25 11:01 | 49.80557 | 31.41385 | 16438 ft | 280 kts | 341° |
| 2026-04-25 11:01 | 49.82413 | 31.40446 | 16071 ft | 281 kts | 341° |
| 2026-04-25 11:01 | 49.84279 | 31.39501 | 15727 ft | 283 kts | 341° |
| 2026-04-25 11:02 | 49.86151 | 31.38557 | 15372 ft | 282 kts | 341° |
| 2026-04-25 11:02 | 49.88007 | 31.37624 | 15037 ft | 279 kts | 341° |
| 2026-04-25 11:02 | 49.89849 | 31.36701 | 14693 ft | 278 kts | 341° |
| 2026-04-25 11:02 | 49.91690 | 31.35779 | 14352 ft | 279 kts | 342° |
| 2026-04-25 11:03 | 49.93538 | 31.34853 | 14007 ft | 279 kts | 342° |
| 2026-04-25 11:03 | 49.95374 | 31.33936 | 13659 ft | 277 kts | 341° |
| 2026-04-25 11:03 | 49.97201 | 31.33023 | 13304 ft | 274 kts | 341° |
| 2026-04-25 11:03 | 49.99008 | 31.32119 | 12949 ft | 272 kts | 341° |
| 2026-04-25 11:04 | 50.00802 | 31.31220 | 12636 ft | 271 kts | 341° |
| 2026-04-25 11:04 | 50.02605 | 31.30317 | 12308 ft | 273 kts | 341° |
| 2026-04-25 11:04 | 50.04419 | 31.29408 | 11969 ft | 276 kts | 341° |
| 2026-04-25 11:04 | 50.05630 | 31.28801 | 11748 ft | 275 kts | 341° |
| 2026-04-25 11:05 | 50.08028 | 31.27598 | 11290 ft | 272 kts | 341° |
| 2026-04-25 11:05 | 50.09819 | 31.26698 | 10962 ft | 269 kts | 341° |
| 2026-04-25 11:05 | 50.11595 | 31.25806 | 10658 ft | 267 kts | 341° |
| 2026-04-25 11:05 | 50.13361 | 31.24918 | 10328 ft | 268 kts | 341° |
| 2026-04-25 11:06 | 50.15122 | 31.24032 | 10225 ft | 264 kts | 341° |
| 2026-04-25 11:06 | 50.16848 | 31.23162 | 10084 ft | 256 kts | 341° |
| 2026-04-25 11:06 | 50.18513 | 31.22324 | 9977 ft | 247 kts | 341° |
| 2026-04-25 11:06 | 50.20123 | 31.21512 | 9858 ft | 239 kts | 341° |
| 2026-04-25 11:07 | 50.21704 | 31.20714 | 9599 ft | 237 kts | 341° |
| 2026-04-25 11:07 | 50.23261 | 31.19928 | 9330 ft | 235 kts | 341° |
| 2026-04-25 11:07 | 50.24813 | 31.19143 | 9086 ft | 235 kts | 341° |
| 2026-04-25 11:07 | 50.26378 | 31.18351 | 8828 ft | 237 kts | 340° |
| 2026-04-25 11:08 | 50.27955 | 31.17552 | 8549 ft | 238 kts | 340° |
| 2026-04-25 11:08 | 50.29526 | 31.16756 | 8294 ft | 236 kts | 340° |
| 2026-04-25 11:08 | 50.31069 | 31.15975 | 8135 ft | 230 kts | 340° |
| 2026-04-25 11:08 | 50.32599 | 31.15198 | 7920 ft | 233 kts | 340° |
| 2026-04-25 11:09 | 50.34166 | 31.14402 | 7654 ft | 240 kts | 340° |
| 2026-04-25 11:09 | 50.35753 | 31.13595 | 7383 ft | 239 kts | 340° |
| 2026-04-25 11:09 | 50.37333 | 31.12792 | 7115 ft | 238 kts | 340° |
| 2026-04-25 11:09 | 50.38907 | 31.11992 | 6832 ft | 238 kts | 340° |
| 2026-04-25 11:10 | 50.40479 | 31.11192 | 6559 ft | 237 kts | 339° |
| 2026-04-25 11:10 | 50.41519 | 31.10662 | 6383 ft | 237 kts | 339° |
| 2026-04-25 11:10 | 50.43615 | 31.09591 | 6013 ft | 237 kts | 339° |
| 2026-04-25 11:10 | 50.45188 | 31.08789 | 5717 ft | 238 kts | 339° |
| 2026-04-25 11:11 | 50.46763 | 31.07987 | 5432 ft | 238 kts | 339° |
| 2026-04-25 11:11 | 50.48316 | 31.07195 | 5290 ft | 231 kts | 339° |
| 2026-04-25 11:11 | 50.49818 | 31.06428 | 5180 ft | 223 kts | 339° |
| 2026-04-25 11:11 | 50.51271 | 31.05685 | 5069 ft | 216 kts | 339° |
| 2026-04-25 11:12 | 50.52652 | 31.04979 | 5021 ft | 206 kts | 338° |
| 2026-04-25 11:12 | 50.53801 | 31.03822 | 4877 ft | 194 kts | 309° |
| 2026-04-25 11:12 | 50.54449 | 31.01999 | 4674 ft | 193 kts | 288° |
| 2026-04-25 11:12 | 50.54635 | 30.99916 | 4479 ft | 193 kts | 275° |
| 2026-04-25 11:13 | 50.54690 | 30.97799 | 4255 ft | 195 kts | 275° |
| 2026-04-25 11:13 | 50.54737 | 30.95663 | 4055 ft | 197 kts | 274° |
| 2026-04-25 11:13 | 50.54564 | 30.93504 | 3812 ft | 206 kts | 248° |
| 2026-04-25 11:13 | 50.53554 | 30.91935 | 3547 ft | 212 kts | 205° |
| 2026-04-25 11:14 | 50.52101 | 30.91678 | 3397 ft | 211 kts | 183° |
| 2026-04-25 11:14 | 50.50626 | 30.91678 | 3196 ft | 212 kts | 185° |
| 2026-04-25 11:14 | 50.49153 | 30.91616 | 3002 ft | 208 kts | 187° |
| 2026-04-25 11:14 | 50.47725 | 30.91515 | 2848 ft | 207 kts | 187° |
| 2026-04-25 11:15 | 50.46272 | 30.91401 | 2565 ft | 210 kts | 187° |
| 2026-04-25 11:15 | 50.44810 | 30.91294 | 2281 ft | 210 kts | 186° |
| 2026-04-25 11:15 | 50.43376 | 30.91186 | 1992 ft | 201 kts | 185° |
| 2026-04-25 11:15 | 50.42055 | 30.91095 | 1752 ft | 178 kts | 187° |
| 2026-04-25 11:16 | 50.40224 | 30.90969 | 1374 ft | 153 kts | 189° |
| 2026-04-25 11:16 | 50.39177 | 30.90874 | 1134 ft | 150 kts | 188° |
| 2026-04-25 11:16 | 50.38152 | 30.90800 | 892 ft | 147 kts | 188° |
| 2026-04-25 11:17 | 50.37142 | 30.90728 | 667 ft | 143 kts | 185° |
| 2026-04-25 11:17 | 50.36181 | 30.90659 | 471 ft | 134 kts | 184° |
| 2026-04-25 11:17 | 50.35290 | 30.90587 | 415 ft | 118 kts | 181° |
| 2026-04-25 11:17 | 50.34626 | 30.90542 | 423 ft | 75 kts | 182° |
| 2026-04-25 11:18 | 50.34316 | 30.90509 | 416 ft | 34 kts | 191° |
| 2026-04-25 11:18 | 50.34125 | 30.90381 | 419 ft | 22 kts | 212° |
| 2026-04-25 11:18 | 50.34028 | 30.90247 | 410 ft | 17 kts | 265° |
| 2026-04-25 11:18 | 50.34096 | 30.90184 | 413 ft | 12 kts | 0° |
| 2026-04-25 11:19 | 50.34177 | 30.90185 | 415 ft | 11 kts | 2° |
| 2026-04-25 11:19 | 50.34256 | 30.90191 | 415 ft | 11 kts | 3° |
| 2026-04-25 11:19 | 50.34332 | 30.90196 | 415 ft | 11 kts | 2° |
| 2026-04-25 11:19 | 50.34407 | 30.90202 | 414 ft | 11 kts | 3° |
| 2026-04-25 11:20 | 50.34479 | 30.90208 | 412 ft | 10 kts | 1° |
| 2026-04-25 11:20 | 50.34557 | 30.90213 | 413 ft | 13 kts | 2° |
| 2026-04-25 11:20 | 50.34673 | 30.90222 | 413 ft | 20 kts | 3° |
| 2026-04-25 11:20 | 50.34818 | 30.90233 | 411 ft | 14 kts | 0° |
| 2026-04-25 11:21 | 50.34890 | 30.90148 | 414 ft | 13 kts | 279° |
| 2026-04-25 11:21 | 50.34898 | 30.90048 | 411 ft | 8 kts | 291° |
| 2026-04-25 11:21 | 50.34947 | 30.90002 | 412 ft | 9 kts | 353° |
| 2026-04-25 11:21 | 50.35013 | 30.90004 | 408 ft | 7 kts | 2° |
| 2026-04-25 11:22 | 50.35057 | 30.90000 | 409 ft | 6 kts | 327° |
| 2026-04-25 11:22 | 50.35060 | 30.89964 | 411 ft | 6 kts | 269° |
| 2026-04-25 11:22 | 50.35061 | 30.89895 | 414 ft | 4 kts | 272° |
| 2026-04-25 11:22 | 50.35062 | 30.89877 | 414 ft | 1 kts | 273° |
| 2026-04-25 11:23 | 50.35062 | 30.89876 | 414 ft | 0 kts | 273° |